Time;durP1;ratioP1;P1;durP2;ratioP2;P2;SDS_P1;SDS_P2;PMS_P1;PMS_P2;Temp;Humidity;BMP_temperature;BMP_pressure;BME280_temperature;BME280_humidity;BME280_pressure;Samples;Min_cycle;Max_cycle;Signal;HPM_P1;HPM_P2
2023/02/09 00:02:53;;;;;;;8.95;6.35;;;15.50;59.50;;;;;;4226176;27;20063;-62
2023/02/09 00:05:33;;;;;;;7.28;6.25;;;15.50;59.50;;;;;;4226114;27;20148;-61
2023/02/09 00:08:14;;;;;;;7.95;6.70;;;15.60;59.50;;;;;;4225637;28;20402;-62
2023/02/09 00:10:56;;;;;;;7.93;6.97;;;15.70;59.20;;;;;;4226057;27;20134;-62
2023/02/09 00:13:37;;;;;;;10.25;7.47;;;15.70;58.90;;;;;;4226209;28;20196;-62
2023/02/09 00:16:18;;;;;;;9.20;6.80;;;15.70;58.70;;;;;;4207675;28;20050;-62
2023/02/09 00:18:59;;;;;;;7.72;7.03;;;15.70;58.80;;;;;;4224739;28;20105;-62
2023/02/09 00:21:40;;;;;;;8.57;6.63;;;15.70;58.80;;;;;;4209594;28;20055;-62
2023/02/09 00:24:21;;;;;;;8.00;6.70;;;15.70;58.90;;;;;;4209214;28;20043;-62
2023/02/09 00:27:04;;;;;;;8.05;7.13;;;15.60;59.10;;;;;;4219615;28;20039;-61
2023/02/09 00:29:44;;;;;;;7.40;6.63;;;15.50;59.20;;;;;;4224044;27;20063;-61
2023/02/09 00:32:25;;;;;;;8.17;6.80;;;15.50;59.30;;;;;;4224890;28;20420;-61
2023/02/09 00:35:07;;;;;;;7.75;6.72;;;15.50;59.30;;;;;;4222397;27;20038;-61
2023/02/09 00:37:47;;;;;;;;;;;15.50;59.20;;;;;;4225238;28;20461;-62
2023/02/09 00:40:28;;;;;;;7.97;6.70;;;15.50;59.50;;;;;;4224988;28;19927;-61
2023/02/09 00:43:10;;;;;;;8.05;7.07;;;15.60;59.60;;;;;;4225692;27;20591;-61
2023/02/09 00:45:51;;;;;;;7.95;6.35;;;15.60;59.40;;;;;;4224102;28;20082;-62
2023/02/09 00:48:33;;;;;;;7.50;6.80;;;15.60;59.20;;;;;;4224653;28;20405;-60
2023/02/09 00:51:14;;;;;;;7.25;6.53;;;15.60;59.30;;;;;;4221196;28;20096;-60
2023/02/09 00:53:56;;;;;;;7.30;6.57;;;15.60;59.30;;;;;;4224930;28;20061;-61
2023/02/09 00:56:37;;;;;;;8.00;7.20;;;15.70;59.10;;;;;;4207656;28;20067;-61
2023/02/09 00:59:20;;;;;;;8.57;6.85;;;15.80;59.00;;;;;;4223225;28;20104;-61
2023/02/09 01:02:01;;;;;;;7.43;6.65;;;15.80;58.60;;;;;;4224919;28;20649;-61
2023/02/09 01:04:42;;;;;;;7.35;6.50;;;15.80;58.60;;;;;;4216845;28;20493;-62
2023/02/09 01:07:23;;;;;;;8.63;7.30;;;15.80;58.60;;;;;;4210291;28;20386;-61
2023/02/09 01:10:06;;;;;;;7.18;6.47;;;15.80;58.60;;;;;;4208705;28;20051;-61
2023/02/09 01:12:47;;;;;;;10.07;7.88;;;15.80;58.50;;;;;;4222983;28;20058;-61
2023/02/09 01:15:29;;;;;;;9.05;7.40;;;15.80;58.50;;;;;;4220829;28;20054;-62
2023/02/09 01:18:10;;;;;;;8.07;6.57;;;15.80;58.60;;;;;;4213221;28;20047;-61
2023/02/09 01:20:51;;;;;;;9.43;7.37;;;15.70;59.30;;;;;;4225568;28;20402;-61
2023/02/09 01:23:32;;;;;;;6.78;6.13;;;15.70;58.80;;;;;;4225375;28;20346;-61
2023/02/09 01:26:15;;;;;;;7.40;6.60;;;15.70;59.00;;;;;;4225224;28;20054;-61
2023/02/09 01:28:56;;;;;;;7.55;6.47;;;15.60;58.90;;;;;;4208372;28;20055;-61
2023/02/09 01:31:38;;;;;;;9.43;7.00;;;15.70;59.50;;;;;;4207073;28;20047;-61
2023/02/09 01:34:20;;;;;;;6.85;6.13;;;15.60;58.90;;;;;;4208657;28;20058;-61
2023/02/09 01:37:02;;;;;;;6.70;6.20;;;15.60;58.90;;;;;;4208775;28;20501;-61
2023/02/09 01:39:42;;;;;;;9.35;6.70;;;15.60;59.00;;;;;;4222042;28;20797;-61
2023/02/09 01:42:23;;;;;;;9.32;6.43;;;15.60;59.10;;;;;;4225370;27;20493;-61
2023/02/09 01:45:19;;;;;;;7.38;6.18;;;15.60;58.90;;;;;;4211759;28;20063;-61
2023/02/09 01:48:03;;;;;;;9.85;6.30;;;15.60;58.40;;;;;;4203311;28;20055;-62
2023/02/09 01:50:47;;;;;;;7.60;6.53;;;15.60;59.00;;;;;;4206129;28;20121;-61
2023/02/09 01:53:28;;;;;;;8.05;6.15;;;15.60;58.90;;;;;;4228431;27;20058;-61
2023/02/09 01:56:14;;;;;;;7.85;7.05;;;15.60;58.70;;;;;;4228668;27;20054;-61
2023/02/09 01:58:55;;;;;;;10.43;6.65;;;15.70;58.60;;;;;;4226988;28;20054;-61
2023/02/09 02:01:37;;;;;;;7.35;6.30;;;15.80;58.60;;;;;;4228187;27;20154;-61
2023/02/09 02:04:19;;;;;;;;;;;15.80;58.40;;;;;;4228435;27;20058;-62
2023/02/09 02:07:10;;;;;;;10.65;6.78;;;15.90;58.40;;;;;;4213168;28;19926;-62
2023/02/09 02:09:51;;;;;;;9.63;6.03;;;15.90;58.10;;;;;;4227056;27;20089;-61
2023/02/09 02:12:32;;;;;;;;;;;16.00;58.10;;;;;;4226367;27;20059;-61
2023/02/09 02:15:13;;;;;;;7.22;6.53;;;16.00;58.20;;;;;;4226664;27;20585;-61
2023/02/09 02:18:17;;;;;;;7.22;6.50;;;16.00;58.70;;;;;;4204051;28;20126;-62
2023/02/09 02:21:41;;;;;;;8.07;6.32;;;16.00;57.80;;;;;;4211002;28;20051;-61
2023/02/09 02:24:50;;;;;;;7.90;6.60;;;15.90;57.80;;;;;;4203745;28;20063;-61
2023/02/09 02:27:41;;;;;;;8.18;6.30;;;16.00;57.60;;;;;;4213525;28;20256;-62
2023/02/09 02:30:55;;;;;;;7.55;6.38;;;16.10;57.70;;;;;;4227364;27;20405;-62
2023/02/09 02:33:46;;;;;;;6.38;5.72;;;16.10;57.30;;;;;;4211620;28;20125;-62
2023/02/09 02:36:32;;;;;;;6.88;5.93;;;16.20;57.30;;;;;;4218045;27;20097;-61
2023/02/09 02:39:22;;;;;;;9.55;6.75;;;16.20;57.20;;;;;;4227998;27;20047;-61
2023/02/09 02:45:13;;;;;;;7.80;6.28;;;16.20;57.00;;;;;;4225156;27;20088;-61
2023/02/09 02:48:00;;;;;;;8.00;6.75;;;16.10;57.30;;;;;;4210620;28;20059;-61
2023/02/09 02:50:47;;;;;;;7.25;6.50;;;16.10;57.30;;;;;;4209573;28;20047;-61
2023/02/09 02:53:31;;;;;;;7.00;6.30;;;16.00;57.30;;;;;;4209524;28;20395;-61
2023/02/09 02:56:16;;;;;;;7.72;6.50;;;16.00;57.40;;;;;;4226209;27;20398;-61
2023/02/09 02:59:00;;;;;;;8.35;6.68;;;16.00;57.30;;;;;;4226973;27;20050;-62
2023/02/09 03:01:44;;;;;;;8.93;6.80;;;15.90;57.40;;;;;;4225908;27;20050;-61
2023/02/09 03:04:27;;;;;;;7.30;6.45;;;15.90;57.50;;;;;;4226816;27;20058;-62
2023/02/09 03:07:10;;;;;;;9.52;6.15;;;15.80;57.60;;;;;;4226982;27;20054;-62
2023/02/09 03:09:53;;;;;;;8.30;6.90;;;15.80;57.80;;;;;;4211822;28;20062;-61
2023/02/09 03:12:41;;;;;;;7.32;6.53;;;15.70;58.00;;;;;;4227018;27;20501;-62
2023/02/09 03:15:32;;;;;;;9.20;7.18;;;15.70;58.00;;;;;;4226013;27;20406;-67
2023/02/09 03:18:25;;;;;;;9.27;6.47;;;15.80;58.60;;;;;;4210913;28;20058;-62
2023/02/09 03:21:14;;;;;;;8.63;6.70;;;15.80;57.60;;;;;;4209719;28;20055;-62
2023/02/09 03:24:01;;;;;;;8.40;7.13;;;15.90;57.60;;;;;;4226898;27;20379;-61
2023/02/09 03:26:46;;;;;;;6.63;5.93;;;15.90;57.50;;;;;;4210201;28;20395;-61
2023/02/09 03:29:29;;;;;;;8.82;6.28;;;15.90;57.40;;;;;;4209635;28;20478;-61
2023/02/09 03:32:10;;;;;;;7.00;6.30;;;15.90;57.30;;;;;;4209574;28;20047;-61
2023/02/09 03:34:52;;;;;;;;;;;15.90;57.20;;;;;;4214147;28;20057;-61
2023/02/09 03:37:33;;;;;;;8.70;6.18;;;15.80;57.50;;;;;;4226355;27;19926;-61
2023/02/09 03:40:15;;;;;;;7.80;6.20;;;15.80;57.80;;;;;;4214110;28;20050;-61
2023/02/09 03:42:57;;;;;;;8.15;6.18;;;15.70;57.90;;;;;;4211508;28;20567;-61
2023/02/09 03:45:40;;;;;;;10.02;6.30;;;15.60;58.00;;;;;;4226527;27;20046;-61
2023/02/09 03:48:21;;;;;;;7.50;6.70;;;15.50;58.20;;;;;;4225163;28;20062;-61
2023/02/09 03:51:01;;;;;;;6.80;6.10;;;15.40;58.20;;;;;;4226228;27;20062;-61
2023/02/09 03:53:42;;;;;;;8.35;6.20;;;15.40;58.30;;;;;;4223006;27;20046;-61
2023/02/09 03:56:25;;;;;;;9.05;6.43;;;15.40;58.50;;;;;;4208550;28;20775;-61
2023/02/09 03:59:06;;;;;;;8.75;6.38;;;15.40;58.50;;;;;;4209491;28;20042;-61
2023/02/09 04:01:47;;;;;;;7.50;6.40;;;15.30;58.50;;;;;;4209151;28;20062;-62
2023/02/09 04:04:27;;;;;;;8.30;7.20;;;15.30;58.60;;;;;;4208781;28;20553;-62
2023/02/09 04:07:08;;;;;;;7.07;6.25;;;15.40;58.80;;;;;;4209493;28;20118;-62
2023/02/09 04:09:49;;;;;;;9.17;6.47;;;15.50;58.50;;;;;;4223029;27;20051;-62
2023/02/09 04:12:31;;;;;;;7.35;6.30;;;15.60;58.10;;;;;;4225180;28;20046;-62
2023/02/09 04:15:12;;;;;;;6.85;6.10;;;15.70;57.70;;;;;;4210662;28;20098;-62
2023/02/09 04:17:53;;;;;;;7.85;6.32;;;15.80;57.50;;;;;;4217546;28;20414;-62
2023/02/09 04:20:34;;;;;;;8.00;6.18;;;15.80;57.40;;;;;;4212726;28;20488;-62
2023/02/09 04:23:15;;;;;;;7.93;6.45;;;15.80;57.40;;;;;;4224284;27;20050;-61
2023/02/09 04:25:56;;;;;;;7.63;6.15;;;15.90;57.30;;;;;;4225598;27;20108;-62
2023/02/09 04:28:39;;;;;;;6.45;5.70;;;16.10;57.10;;;;;;4225323;27;20074;-61
2023/02/09 04:31:20;;;;;;;8.27;6.38;;;16.10;56.80;;;;;;4225861;27;20055;-62
2023/02/09 04:34:01;;;;;;;6.47;5.68;;;16.20;56.50;;;;;;4209303;28;20063;-61
2023/02/09 04:36:42;;;;;;;10.07;6.05;;;16.20;56.50;;;;;;4225843;28;20054;-62
2023/02/09 04:39:23;;;;;;;7.35;5.70;;;16.20;56.50;;;;;;4225975;27;20075;-62
2023/02/09 04:42:04;;;;;;;5.93;5.40;;;16.20;56.40;;;;;;4224873;28;20059;-62
2023/02/09 04:44:46;;;;;;;6.50;5.50;;;16.20;56.40;;;;;;4208610;28;20063;-62
2023/02/09 04:47:27;;;;;;;7.18;6.47;;;16.20;56.40;;;;;;4207610;28;20063;-61
2023/02/09 04:50:08;;;;;;;7.82;5.30;;;16.20;56.50;;;;;;4208889;28;20054;-62
2023/02/09 04:52:50;;;;;;;6.90;5.78;;;16.20;56.40;;;;;;4208259;28;20051;-62
2023/02/09 04:55:30;;;;;;;;;;;16.30;56.30;;;;;;4209152;28;20051;-61
2023/02/09 05:01:18;;;;;;;5.65;5.15;;;16.30;56.60;;;;;;4208652;28;20456;-61
2023/02/09 05:03:59;;;;;;;7.18;5.53;;;16.30;56.20;;;;;;4208662;28;20067;-61
2023/02/09 05:06:39;;;;;;;6.85;6.00;;;16.30;56.10;;;;;;4221037;28;20058;-61
2023/02/09 05:09:21;;;;;;;7.53;5.95;;;16.30;55.90;;;;;;4224450;28;20046;-61
2023/02/09 05:12:01;;;;;;;6.88;5.63;;;16.30;56.00;;;;;;4224593;28;20062;-62
2023/02/09 05:14:42;;;;;;;6.07;5.47;;;16.30;56.20;;;;;;4225420;28;20054;-62
2023/02/09 05:17:25;;;;;;;7.43;5.57;;;16.30;56.10;;;;;;4221683;27;20054;-62
2023/02/09 05:20:07;;;;;;;7.95;6.25;;;16.20;56.00;;;;;;4215049;27;20489;-62
2023/02/09 05:22:47;;;;;;;;;;;16.10;56.10;;;;;;4229532;27;20176;-62
2023/02/09 05:25:30;;;;;;;6.88;5.93;;;16.10;56.50;;;;;;4227245;27;20001;-62
2023/02/09 05:28:11;;;;;;;10.18;5.93;;;16.00;56.70;;;;;;4227063;27;20131;-62
2023/02/09 05:30:53;;;;;;;8.13;5.97;;;16.00;56.70;;;;;;4228773;27;20063;-62
2023/02/09 05:33:36;;;;;;;7.78;5.72;;;15.90;56.80;;;;;;4223858;28;20045;-62
2023/02/09 05:36:16;;;;;;;6.10;5.50;;;15.80;56.90;;;;;;4228632;27;20501;-62
2023/02/09 05:38:57;;;;;;;8.75;5.90;;;15.80;57.20;;;;;;4211789;28;20059;-61
2023/02/09 05:44:37;;;;;;;6.43;5.57;;;16.00;56.90;;;;;;4209210;28;20059;-61
2023/02/09 05:47:19;;;;;;;6.55;5.82;;;16.10;56.70;;;;;;4218328;27;20055;-61
2023/02/09 05:50:02;;;;;;;7.18;5.82;;;16.10;56.60;;;;;;4219575;27;20063;-61
2023/02/09 05:52:43;;;;;;;7.70;5.72;;;16.20;56.50;;;;;;4213013;27;20062;-61
2023/02/09 05:55:24;;;;;;;9.40;6.18;;;16.20;56.30;;;;;;4211023;28;20477;-62
2023/02/09 05:58:05;;;;;;;6.53;5.80;;;16.20;56.30;;;;;;4228219;27;20481;-62
2023/02/09 06:00:46;;;;;;;8.13;5.78;;;16.20;56.30;;;;;;4228294;27;20501;-61
2023/02/09 06:03:27;;;;;;;7.47;5.75;;;16.30;56.10;;;;;;4211390;28;20113;-62
2023/02/09 06:06:10;;;;;;;6.70;5.57;;;16.30;55.90;;;;;;4222841;28;20112;-61
2023/02/09 06:08:50;;;;;;;9.20;5.90;;;16.40;55.70;;;;;;4225416;28;20059;-62
2023/02/09 06:11:32;;;;;;;10.73;5.63;;;16.30;55.70;;;;;;4212371;28;20063;-61
2023/02/09 06:14:13;;;;;;;8.95;5.60;;;16.30;55.70;;;;;;4227756;27;20050;-62
2023/02/09 06:16:54;;;;;;;7.15;6.05;;;16.30;56.00;;;;;;4211126;28;20129;-62
2023/02/09 06:19:34;;;;;;;7.22;5.75;;;16.10;56.10;;;;;;4210859;28;20185;-62
2023/02/09 06:22:17;;;;;;;9.23;6.60;;;16.10;57.00;;;;;;4210953;28;20269;-62
2023/02/09 06:24:58;;;;;;;7.28;6.40;;;16.00;56.30;;;;;;4226972;27;20050;-67
2023/02/09 06:27:39;;;;;;;7.85;5.75;;;15.90;56.40;;;;;;4220985;27;20047;-68
2023/02/09 06:30:20;;;;;;;11.30;5.63;;;15.80;56.70;;;;;;4227846;27;20059;-68
2023/02/09 06:33:01;;;;;;;7.03;5.35;;;15.70;56.90;;;;;;4227227;27;20055;-68
2023/02/09 06:35:42;;;;;;;7.95;5.20;;;15.70;57.20;;;;;;4227730;27;20050;-68
2023/02/09 06:38:24;;;;;;;7.30;5.85;;;15.80;57.20;;;;;;4227635;28;20132;-67
2023/02/09 06:41:06;;;;;;;7.30;6.13;;;15.90;56.90;;;;;;4227514;27;20050;-67
2023/02/09 06:43:47;;;;;;;6.57;5.60;;;15.90;56.60;;;;;;4213475;28;20065;-67
2023/02/09 06:46:28;;;;;;;8.00;6.65;;;16.00;56.50;;;;;;4225218;27;20061;-68
2023/02/09 06:49:09;;;;;;;7.43;6.32;;;16.00;56.30;;;;;;4225792;28;20496;-68
2023/02/09 06:51:50;;;;;;;7.90;6.00;;;16.00;56.10;;;;;;4212003;28;20503;-69
2023/02/09 06:54:32;;;;;;;7.43;5.85;;;16.00;56.20;;;;;;4227044;27;20252;-68
2023/02/09 06:57:13;;;;;;;7.47;5.68;;;16.10;56.80;;;;;;4211699;28;20426;-66
2023/02/09 06:59:53;;;;;;;10.52;6.20;;;16.10;56.30;;;;;;4227377;27;20809;-62
2023/02/09 07:02:35;;;;;;;9.32;5.68;;;16.20;56.60;;;;;;4216722;27;20128;-60
2023/02/09 07:05:16;;;;;;;;;;;16.20;56.30;;;;;;4213497;28;20047;-61
2023/02/09 07:07:57;;;;;;;7.47;6.30;;;16.20;56.00;;;;;;4221909;27;19972;-61
2023/02/09 07:10:42;;;;;;;7.25;5.47;;;16.10;55.20;;;;;;4219256;27;20180;-61
2023/02/09 07:13:23;;;;;;;10.38;6.05;;;16.10;54.60;;;;;;4216991;28;20403;-61
2023/02/09 07:16:06;;;;;;;9.50;5.73;;;16.00;54.20;;;;;;4199936;28;20055;-70
2023/02/09 07:18:47;;;;;;;11.05;6.13;;;16.10;53.80;;;;;;4206296;28;20411;-61
2023/02/09 07:21:28;;;;;;;9.47;6.73;;;16.10;53.30;;;;;;4212322;27;20038;-61
2023/02/09 07:24:09;;;;;;;5.70;4.65;;;16.10;52.80;;;;;;4225240;28;20139;-61
2023/02/09 07:26:52;;;;;;;8.45;6.45;;;16.20;52.60;;;;;;4222520;27;20509;-61
2023/02/09 07:29:33;;;;;;;8.00;5.93;;;16.20;52.10;;;;;;4227411;27;20055;-69
2023/02/09 07:32:14;;;;;;;6.82;5.50;;;16.20;51.30;;;;;;4225993;28;20167;-69
2023/02/09 07:34:55;;;;;;;6.75;6.05;;;16.20;51.00;;;;;;4227168;27;20087;-69
2023/02/09 07:37:36;;;;;;;6.75;6.00;;;16.20;50.80;;;;;;4226477;27;20061;-68
2023/02/09 07:40:17;;;;;;;6.65;5.43;;;16.30;50.50;;;;;;4225732;27;20208;-69
2023/02/09 07:42:59;;;;;;;10.32;5.85;;;16.30;49.80;;;;;;4227260;27;20055;-68
2023/02/09 07:45:41;;;;;;;9.05;6.00;;;16.30;49.30;;;;;;4210318;28;20070;-69
2023/02/09 07:48:24;;;;;;;7.40;5.50;;;16.40;48.70;;;;;;4218227;27;20062;-61
2023/02/09 07:51:06;;;;;;;6.00;5.40;;;16.40;48.10;;;;;;4226013;27;20058;-59
2023/02/09 07:53:48;;;;;;;8.15;5.72;;;16.40;47.80;;;;;;4228225;27;21254;-60
2023/02/09 07:56:29;;;;;;;7.80;5.93;;;16.30;47.80;;;;;;4223883;27;20057;-61
2023/02/09 07:59:11;;;;;;;10.38;5.78;;;16.30;47.60;;;;;;4231637;27;20530;-61
2023/02/09 08:01:52;;;;;;;9.55;5.85;;;16.20;47.80;;;;;;4234695;27;20058;-61
2023/02/09 08:04:34;;;;;;;;;;;16.10;47.60;;;;;;4236585;27;20050;-61
2023/02/09 08:07:15;;;;;;;8.48;5.47;;;15.90;48.50;;;;;;4237371;27;19930;-68
2023/02/09 08:09:56;;;;;;;9.13;6.40;;;15.80;47.60;;;;;;4230198;27;20139;-69
2023/02/09 08:15:44;;;;;;;9.02;6.47;;;15.50;48.30;;;;;;4205768;28;20055;-70
2023/02/09 08:18:31;;;;;;;6.47;5.65;;;15.50;48.50;;;;;;4224407;27;20054;-69
2023/02/09 08:21:15;;;;;;;8.07;6.15;;;15.50;48.50;;;;;;4232714;27;20139;-70
2023/02/09 08:23:58;;;;;;;9.15;6.55;;;15.50;48.40;;;;;;4235571;27;20078;-70
2023/02/09 08:26:40;;;;;;;8.05;5.95;;;15.50;48.30;;;;;;4233365;27;20123;-70
2023/02/09 08:29:21;;;;;;;7.68;6.78;;;15.60;48.00;;;;;;4232988;27;20049;-70
2023/02/09 08:32:04;;;;;;;6.70;6.03;;;15.70;47.60;;;;;;4223763;27;20042;-70
2023/02/09 08:34:45;;;;;;;9.10;6.10;;;15.80;47.10;;;;;;4227899;27;20054;-69
2023/02/09 08:37:26;;;;;;;5.13;4.63;;;15.80;46.90;;;;;;4216389;28;20100;-69
2023/02/09 08:40:08;;;;;;;9.73;6.53;;;15.90;47.00;;;;;;4214655;27;20055;-69
2023/02/09 08:42:49;;;;;;;9.38;5.45;;;15.90;46.60;;;;;;4239752;27;20103;-69
2023/02/09 08:45:30;;;;;;;8.55;5.85;;;15.90;46.40;;;;;;4237322;27;20069;-69
2023/02/09 08:48:13;;;;;;;8.90;6.47;;;15.90;46.20;;;;;;4224846;27;20055;-69
2023/02/09 08:50:54;;;;;;;7.65;5.28;;;15.90;46.00;;;;;;4237559;27;20054;-68
2023/02/09 08:53:35;;;;;;;9.52;6.72;;;15.80;46.10;;;;;;4223215;27;20054;-70
2023/02/09 08:56:17;;;;;;;8.43;6.22;;;15.80;46.30;;;;;;4223023;27;20494;-70
2023/02/09 08:58:57;;;;;;;6.77;5.07;;;15.70;46.30;;;;;;4222671;28;20071;-73
2023/02/09 09:01:41;;;;;;;10.32;6.28;;;15.60;46.20;;;;;;4222910;28;20043;-72
2023/02/09 09:04:23;;;;;;;7.03;5.60;;;15.60;46.50;;;;;;4223203;27;20441;-73
2023/02/09 09:07:04;;;;;;;7.80;6.47;;;15.50;46.90;;;;;;4236349;27;20184;-72
2023/02/09 09:09:45;;;;;;;6.63;6.00;;;15.40;47.00;;;;;;4239629;27;20062;-72
2023/02/09 09:12:26;;;;;;;7.53;6.40;;;15.40;47.10;;;;;;4237995;27;20058;-72
2023/02/09 09:15:07;;;;;;;8.27;6.35;;;15.40;47.10;;;;;;4225959;27;20042;-72
2023/02/09 09:17:48;;;;;;;8.65;5.90;;;15.30;47.50;;;;;;4230806;27;20074;-72
2023/02/09 09:20:31;;;;;;;8.98;6.70;;;15.30;47.60;;;;;;4236414;27;20055;-73
2023/02/09 09:23:12;;;;;;;10.55;6.47;;;15.30;47.70;;;;;;4227502;27;20193;-72
2023/02/09 09:25:53;;;;;;;7.18;5.97;;;15.50;47.80;;;;;;4223580;27;20136;-72
2023/02/09 09:28:34;;;;;;;7.53;6.00;;;15.60;47.80;;;;;;4225041;27;20058;-73
2023/02/09 09:31:16;;;;;;;13.23;6.72;;;15.70;47.50;;;;;;4222900;27;20398;-72
2023/02/09 09:33:58;;;;;;;8.73;7.00;;;15.90;47.70;;;;;;4221067;27;20055;-73
2023/02/09 09:36:40;;;;;;;8.85;6.72;;;16.00;47.30;;;;;;4237857;27;20046;-72
2023/02/09 09:39:21;;;;;;;10.52;7.30;;;16.10;46.80;;;;;;4232854;27;20592;-72
2023/02/09 09:42:04;;;;;;;11.52;7.30;;;16.10;46.40;;;;;;4221260;27;20406;-72
2023/02/09 09:44:46;;;;;;;9.13;6.68;;;16.20;46.20;;;;;;4222547;28;20125;-70
2023/02/09 09:47:33;;;;;;;;;;;16.30;45.80;;;;;;4228035;27;20378;-71
2023/02/09 09:50:18;;;;;;;8.65;7.03;;;16.40;45.60;;;;;;4234745;27;20597;-71
2023/02/09 09:53:04;;;;;;;11.18;6.80;;;16.30;45.00;;;;;;4226725;27;20066;-70
2023/02/09 09:55:46;;;;;;;12.32;6.70;;;16.30;44.60;;;;;;4223670;27;20049;-70
2023/02/09 09:58:29;;;;;;;8.18;7.00;;;16.10;44.60;;;;;;4225118;27;20409;-71
2023/02/09 10:01:13;;;;;;;11.90;6.75;;;16.10;44.80;;;;;;4239805;27;20555;-71
2023/02/09 10:03:58;;;;;;;9.95;6.55;;;16.10;44.80;;;;;;4238567;27;20050;-72
2023/02/09 10:06:41;;;;;;;9.02;7.20;;;16.10;44.60;;;;;;4231848;27;20054;-72
2023/02/09 10:09:34;;;;;;;7.45;5.35;;;16.10;44.30;;;;;;4225086;27;20055;-62
2023/02/09 10:12:29;;;;;;;9.27;7.22;;;16.20;44.40;;;;;;4225756;27;20054;-63
2023/02/09 10:15:19;;;;;;;10.05;7.07;;;16.10;44.00;;;;;;4230481;27;20055;-62
2023/02/09 10:18:00;;;;;;;13.60;8.05;;;16.00;44.70;;;;;;4232656;27;20070;-62
2023/02/09 10:20:47;;;;;;;10.82;7.70;;;16.00;44.20;;;;;;4229291;27;20050;-63
2023/02/09 10:23:38;;;;;;;10.50;7.85;;;15.90;44.20;;;;;;4229507;27;20526;-63
2023/02/09 10:26:24;;;;;;;8.82;6.72;;;15.90;44.60;;;;;;4236793;27;20128;-67
2023/02/09 10:29:21;;;;;;;8.20;7.35;;;15.90;44.90;;;;;;4232096;27;20176;-72
2023/02/09 10:32:13;;;;;;;9.48;7.55;;;15.80;44.80;;;;;;4240838;27;20062;-73
2023/02/09 10:34:56;;;;;;;8.32;7.38;;;15.80;44.80;;;;;;4225530;27;20108;-73
2023/02/09 10:37:39;;;;;;;11.13;7.55;;;15.70;44.90;;;;;;4225042;27;20051;-74
2023/02/09 10:40:27;;;;;;;9.95;7.55;;;15.50;45.00;;;;;;4231370;27;20050;-73
2023/02/09 10:43:21;;;;;;;9.50;6.40;;;15.50;45.10;;;;;;4222673;27;20038;-73
2023/02/09 10:46:10;;;;;;;9.48;6.75;;;15.60;45.10;;;;;;4225566;27;20359;-73
2023/02/09 10:48:51;;;;;;;10.40;7.47;;;15.60;44.90;;;;;;4225989;27;20069;-72
2023/02/09 10:51:33;;;;;;;14.30;8.80;;;15.70;44.80;;;;;;4229455;27;20050;-72
2023/02/09 10:54:21;;;;;;;10.65;8.13;;;15.70;44.60;;;;;;4234551;27;20054;-74
2023/02/09 10:57:02;;;;;;;11.93;8.25;;;15.70;44.50;;;;;;4224575;27;20116;-73
2023/02/09 10:59:51;;;;;;;12.82;7.90;;;15.70;44.50;;;;;;4236070;27;20054;-74
2023/02/09 11:02:39;;;;;;;13.70;8.15;;;15.70;44.80;;;;;;4233240;27;20050;-74
2023/02/09 11:05:29;;;;;;;12.65;6.35;;;15.60;45.20;;;;;;4217904;27;20046;-70
2023/02/09 11:08:19;;;;;;;13.35;8.80;;;15.70;45.30;;;;;;4224097;27;20120;-69
2023/02/09 11:11:05;;;;;;;11.23;8.95;;;15.70;45.10;;;;;;4230072;27;20054;-69
2023/02/09 11:13:47;;;;;;;13.00;8.32;;;15.80;45.30;;;;;;4231961;27;20050;-69
2023/02/09 11:16:49;;;;;;;9.40;7.95;;;15.70;44.90;;;;;;4229401;27;20058;-70
2023/02/09 11:19:58;;;;;;;14.18;8.05;;;15.70;44.90;;;;;;4235326;27;20123;-69
2023/02/09 11:22:59;;;;;;;10.70;8.70;;;15.70;45.00;;;;;;4226221;27;20888;-69
2023/02/09 11:25:45;;;;;;;15.80;7.97;;;15.80;45.00;;;;;;4238204;27;20062;-69
2023/02/09 11:28:40;;;;;;;14.00;8.52;;;15.80;45.20;;;;;;4228118;27;20504;-70
2023/02/09 11:31:49;;;;;;;11.43;8.63;;;15.80;45.00;;;;;;4213391;28;20113;-69
2023/02/09 11:34:59;;;;;;;11.60;8.32;;;15.80;44.70;;;;;;4222434;27;20549;-70
2023/02/09 11:37:50;;;;;;;12.25;8.70;;;15.80;44.60;;;;;;4222984;28;20477;-69
2023/02/09 11:40:36;;;;;;;13.35;8.80;;;15.70;44.70;;;;;;4214859;27;20055;-70
2023/02/09 11:43:25;;;;;;;11.60;7.90;;;15.70;44.90;;;;;;4230041;27;20046;-70
2023/02/09 11:46:12;;;;;;;11.48;8.63;;;15.70;44.80;;;;;;4209937;28;20504;-70
2023/02/09 11:49:00;;;;;;;11.40;8.52;;;15.80;44.80;;;;;;4226571;27;20066;-70
2023/02/09 11:51:44;;;;;;;11.30;9.20;;;15.70;44.80;;;;;;4231532;27;20046;-70
2023/02/09 11:54:32;;;;;;;12.23;8.63;;;15.70;44.80;;;;;;4233204;27;20057;-70
2023/02/09 11:57:21;;;;;;;12.70;8.15;;;15.60;45.00;;;;;;4240841;27;20118;-70
2023/02/09 12:00:06;;;;;;;11.07;8.10;;;15.50;45.10;;;;;;4238396;27;20053;-69
2023/02/09 12:03:00;;;;;;;11.88;9.13;;;15.50;45.60;;;;;;4225274;27;20157;-69
2023/02/09 12:05:45;;;;;;;9.25;5.95;;;15.40;45.60;;;;;;4226575;27;20107;-69
2023/02/09 12:08:36;;;;;;;14.73;8.50;;;15.40;45.70;;;;;;4234810;27;20111;-69
2023/02/09 12:11:35;;;;;;;13.90;9.43;;;15.40;46.00;;;;;;4238545;27;20453;-68
2023/02/09 12:14:45;;;;;;;13.25;8.75;;;15.40;46.40;;;;;;4223032;27;20050;-69
2023/02/09 12:17:36;;;;;;;14.80;9.65;;;15.40;46.30;;;;;;4228169;27;20058;-69
2023/02/09 12:20:30;;;;;;;13.75;9.02;;;15.40;46.30;;;;;;4226327;27;21908;-68
2023/02/09 12:23:25;;;;;;;11.73;8.68;;;15.40;46.50;;;;;;4227035;27;20084;-68
2023/02/09 12:26:34;;;;;;;11.73;8.63;;;15.40;46.50;;;;;;4218234;28;20730;-67
2023/02/09 12:29:26;;;;;;;10.95;8.23;;;15.50;46.10;;;;;;4231928;27;20050;-67
2023/02/09 12:32:25;;;;;;;10.90;8.32;;;15.50;46.00;;;;;;4234781;27;20100;-68
2023/02/09 12:35:28;;;;;;;13.20;8.88;;;15.40;45.90;;;;;;4223609;27;20047;-68
2023/02/09 12:38:16;;;;;;;11.25;6.88;;;15.40;46.10;;;;;;4223543;27;20058;-60
2023/02/09 12:41:08;;;;;;;11.02;9.27;;;15.30;46.20;;;;;;4223354;27;20071;-60
2023/02/09 12:43:49;;;;;;;7.55;6.00;;;15.30;46.30;;;;;;4232245;27;20057;-61
2023/02/09 12:46:50;;;;;;;13.18;9.25;;;15.30;46.40;;;;;;4223513;28;20045;-60
2023/02/09 12:49:32;;;;;;;11.18;8.90;;;15.30;46.40;;;;;;4236262;27;20405;-60
2023/02/09 12:52:17;;;;;;;13.30;9.45;;;15.30;46.60;;;;;;4223695;27;20140;-60
2023/02/09 12:54:57;;;;;;;14.20;9.57;;;15.30;46.70;;;;;;4222959;28;20062;-60
2023/02/09 12:57:51;;;;;;;16.83;10.57;;;15.20;46.70;;;;;;4232491;27;20050;-60
2023/02/09 13:00:53;;;;;;;12.63;9.73;;;15.20;46.70;;;;;;4237826;27;20072;-61
2023/02/09 13:03:43;;;;;;;15.50;10.15;;;15.10;47.00;;;;;;4222305;27;20509;-61
2023/02/09 13:06:35;;;;;;;16.45;10.13;;;15.10;47.20;;;;;;4224785;27;20058;-61
2023/02/09 13:09:23;;;;;;;14.43;10.20;;;15.10;47.60;;;;;;4221920;28;20070;-61
2023/02/09 13:12:13;;;;;;;16.27;10.38;;;15.10;47.70;;;;;;4226219;27;20063;-60
2023/02/09 13:14:55;;;;;;;17.67;10.95;;;15.10;47.80;;;;;;4222230;28;20200;-60
2023/02/09 13:17:40;;;;;;;13.40;9.63;;;15.20;47.80;;;;;;4233651;27;20050;-60
2023/02/09 13:20:59;;;;;;;15.18;9.77;;;15.20;47.80;;;;;;4235184;27;20058;-60
2023/02/09 13:23:52;;;;;;;13.25;9.43;;;15.20;47.80;;;;;;4222999;28;20058;-60
2023/02/09 13:26:35;;;;;;;13.80;9.18;;;15.30;47.80;;;;;;4233251;27;20454;-60
2023/02/09 13:29:18;;;;;;;16.27;10.13;;;15.40;47.70;;;;;;4239610;27;20397;-62
2023/02/09 13:32:11;;;;;;;13.98;9.68;;;15.50;47.30;;;;;;4222675;27;20515;-62
2023/02/09 13:34:58;;;;;;;14.02;10.15;;;15.60;47.00;;;;;;4222856;27;20058;-64
2023/02/09 13:37:45;;;;;;;17.90;9.43;;;15.60;46.90;;;;;;4221788;27;20050;-63
2023/02/09 13:40:28;;;;;;;13.52;9.55;;;15.70;47.00;;;;;;4224885;28;20056;-60
2023/02/09 13:43:17;;;;;;;13.35;9.65;;;15.70;46.90;;;;;;4228515;27;20390;-60
2023/02/09 13:46:01;;;;;;;11.98;9.20;;;15.70;47.00;;;;;;4225855;27;20050;-60
2023/02/09 13:48:43;;;;;;;14.18;10.25;;;15.70;47.10;;;;;;4223644;27;20050;-60
2023/02/09 13:51:25;;;;;;;13.07;9.95;;;15.70;47.20;;;;;;4226851;27;20133;-59
2023/02/09 13:54:06;;;;;;;13.07;9.05;;;15.80;47.10;;;;;;4237747;27;20132;-62
2023/02/09 13:56:47;;;;;;;15.48;10.25;;;15.80;47.00;;;;;;4236392;27;20046;-61
2023/02/09 13:59:29;;;;;;;12.18;8.88;;;15.80;47.10;;;;;;4236734;27;20102;-62
2023/02/09 14:02:19;;;;;;;14.98;10.45;;;15.80;47.20;;;;;;4209491;28;20062;-62
2023/02/09 14:05:05;;;;;;;14.93;10.00;;;15.70;47.20;;;;;;4191785;28;20056;-62
2023/02/09 14:07:47;;;;;;;15.48;10.18;;;15.70;47.20;;;;;;4191767;28;20063;-62
2023/02/09 14:10:29;;;;;;;15.13;10.32;;;15.70;47.20;;;;;;4191776;28;20170;-62
2023/02/09 14:13:18;;;;;;;13.43;10.13;;;15.80;47.30;;;;;;4191506;28;20051;-60
2023/02/09 14:16:07;;;;;;;13.68;9.45;;;15.80;47.20;;;;;;4191463;28;20067;-60
2023/02/09 14:18:51;;;;;;;15.60;10.85;;;15.80;47.10;;;;;;4189396;28;20059;-60
2023/02/09 14:21:45;;;;;;;11.60;10.40;;;15.80;47.10;;;;;;4191043;28;20055;-60
2023/02/09 14:24:26;;;;;;;14.70;9.13;;;15.80;47.10;;;;;;4191556;28;20486;-60
2023/02/09 14:27:18;;;;;;;;;;;15.80;47.10;;;;;;4191485;28;20093;-60
2023/02/09 14:30:00;;;;;;;16.27;8.80;;;15.80;47.20;;;;;;4191647;28;19936;-61